createdAt,value
2019-02-12T07:35:20.084Z,995.58
2019-02-12T07:35:46.723Z,995.58
2019-02-12T07:37:17.187Z,995.66
2019-02-12T07:38:09.887Z,995.61
2019-02-12T07:39:04.170Z,995.61
2019-02-12T22:16:47.426Z,1002.88
2019-02-12T22:17:36.909Z,1002.84
2019-02-12T22:22:39.183Z,1002.88
2019-02-12T22:23:37.733Z,1002.88
2019-02-12T22:27:58.079Z,1002.81
2019-02-12T22:28:05.488Z,1002.83
2019-02-12T22:28:58.571Z,1002.80
2019-02-12T22:29:58.491Z,1002.81
2019-02-12T22:30:58.543Z,1002.83
2019-02-12T22:31:58.979Z,1002.85
2019-02-12T22:32:58.366Z,1002.87
2019-02-12T22:33:58.559Z,1002.85
2019-02-12T22:34:58.348Z,1002.86
2019-02-12T22:35:58.327Z,1002.90
2019-02-12T22:36:58.950Z,1002.87
2019-02-12T22:37:58.324Z,1002.86
2019-02-12T22:38:58.224Z,1002.82
2019-02-12T22:39:58.241Z,1002.77
2019-02-12T22:40:58.353Z,1002.76
2019-02-12T22:41:58.162Z,1002.81
2019-02-12T22:42:58.232Z,1002.78
2019-02-12T22:43:58.185Z,1002.75
2019-02-12T22:44:58.119Z,1002.75
2019-02-12T22:45:58.122Z,1002.73
2019-02-12T22:46:58.170Z,1002.73
2019-02-12T22:47:58.059Z,1002.75
2019-02-12T22:48:57.971Z,1002.75
2019-02-12T22:49:57.989Z,1002.72
2019-02-12T22:50:58.009Z,1002.74
2019-02-12T22:51:58.401Z,1002.73
2019-02-12T22:52:57.884Z,1002.69
2019-02-12T22:53:58.103Z,1002.66
2019-02-12T22:54:58.019Z,1002.66
2019-02-12T22:55:57.887Z,1002.68
2019-02-12T22:56:57.910Z,1002.66
2019-02-12T22:57:57.804Z,1002.62
2019-02-12T22:58:57.911Z,1002.64
2019-02-12T22:59:57.803Z,1002.69
2019-02-12T23:00:58.493Z,1002.68
2019-02-12T23:01:57.757Z,1002.69
2019-02-12T23:02:57.718Z,1002.67
2019-02-12T23:03:57.682Z,1002.67
2019-02-12T23:04:57.737Z,1002.63
2019-02-12T23:05:57.710Z,1002.62
2019-02-12T23:06:58.456Z,1002.63
2019-02-12T23:07:57.664Z,1002.62
2019-02-12T23:08:57.710Z,1002.63
2019-02-12T23:09:57.587Z,1002.59
2019-02-12T23:10:57.653Z,1002.62
2019-02-12T23:11:57.535Z,1002.62
2019-02-12T23:12:57.519Z,1002.58
2019-02-12T23:13:57.506Z,1002.60
2019-02-12T23:14:57.557Z,1002.60
2019-02-12T23:15:57.446Z,1002.57
2019-02-12T23:16:57.482Z,1002.55
2019-02-12T23:17:57.445Z,1002.54
2019-02-12T23:18:57.383Z,1002.54
2019-02-12T23:19:57.417Z,1002.53
2019-02-12T23:20:57.367Z,1002.53
2019-02-12T23:21:57.329Z,1002.52
2019-02-12T23:22:57.193Z,1002.54
2019-02-12T23:23:57.193Z,1002.52
2019-02-12T23:24:57.994Z,1002.51
2019-02-12T23:25:57.209Z,1002.47
2019-02-12T23:26:57.126Z,1002.49
2019-02-12T23:27:57.824Z,1002.46
2019-02-12T23:28:57.086Z,1002.48
2019-02-12T23:29:57.088Z,1002.45
2019-02-12T23:30:57.133Z,1002.46
2019-02-12T23:31:57.354Z,1002.45
2019-02-12T23:32:57.055Z,1002.37
2019-02-12T23:33:57.062Z,1002.38
2019-02-12T23:34:57.425Z,1002.40
2019-02-12T23:35:56.973Z,1002.37
2019-02-12T23:36:56.956Z,1002.40
2019-02-12T23:37:56.913Z,1002.37
2019-02-12T23:38:56.890Z,1002.41
2019-02-12T23:39:56.873Z,1002.39
2019-02-12T23:40:56.848Z,1002.37
2019-02-12T23:41:56.782Z,1002.30
2019-02-12T23:42:56.810Z,1002.27
2019-02-12T23:43:56.719Z,1002.26
2019-02-12T23:44:56.840Z,1002.28
2019-02-12T23:45:57.383Z,1002.26
2019-02-12T23:46:56.708Z,1002.26
2019-02-12T23:47:56.653Z,1002.22
2019-02-12T23:48:56.729Z,1002.23
2019-02-12T23:49:56.641Z,1002.27
2019-02-12T23:50:56.642Z,1002.23
2019-02-12T23:51:56.657Z,1002.20
2019-02-12T23:52:56.583Z,1002.16
2019-02-12T23:53:56.599Z,1002.09
2019-02-12T23:54:56.498Z,1002.12
2019-02-12T23:55:56.579Z,1002.11
2019-02-12T23:56:56.523Z,1002.14
2019-02-12T23:57:56.488Z,1002.16
2019-02-12T23:58:56.718Z,1002.15
2019-02-12T23:59:56.469Z,1002.10
